sensor_id;sensor_type;location;lat;lon;timestamp;pressure;altitude;pressure_sealevel;temperature;humidity
41306;BME280;27051;50.376;19.152;2023-07-20T00:00:29;97423.08;;;19.68;51.95
41306;BME280;27051;50.376;19.152;2023-07-20T00:03:15;97418.54;;;19.65;52.06
41306;BME280;27051;50.376;19.152;2023-07-20T00:05:46;97412.66;;;19.67;51.98
41306;BME280;27051;50.376;19.152;2023-07-20T00:08:18;97413.05;;;19.72;51.83
41306;BME280;27051;50.376;19.152;2023-07-20T00:10:56;97411.20;;;19.75;51.86
41306;BME280;27051;50.376;19.152;2023-07-20T00:13:23;97412.70;;;19.79;51.46
41306;BME280;27051;50.376;19.152;2023-07-20T00:15:51;97412.85;;;19.84;51.61
41306;BME280;27051;50.376;19.152;2023-07-20T00:18:18;97413.62;;;19.89;51.77
41306;BME280;27051;50.376;19.152;2023-07-20T00:20:44;97420.52;;;19.92;51.95
41306;BME280;27051;50.376;19.152;2023-07-20T00:23:11;97424.73;;;19.95;52.21
41306;BME280;27051;50.376;19.152;2023-07-20T00:25:38;97426.88;;;19.97;52.19
41306;BME280;27051;50.376;19.152;2023-07-20T00:28:04;97434.86;;;19.99;52.36
41306;BME280;27051;50.376;19.152;2023-07-20T00:30:31;97458.20;;;20.01;52.69
41306;BME280;27051;50.376;19.152;2023-07-20T00:32:58;97485.65;;;19.96;52.88
41306;BME280;27051;50.376;19.152;2023-07-20T00:35:24;97498.79;;;19.98;53.24
41306;BME280;27051;50.376;19.152;2023-07-20T00:37:51;97491.30;;;20.02;53.02
41306;BME280;27051;50.376;19.152;2023-07-20T00:40:20;97495.67;;;20.02;52.51
41306;BME280;27051;50.376;19.152;2023-07-20T00:42:47;97500.33;;;20.03;51.85
41306;BME280;27051;50.376;19.152;2023-07-20T00:45:13;97503.14;;;20.07;51.58
41306;BME280;27051;50.376;19.152;2023-07-20T00:47:40;97505.58;;;20.06;51.47
41306;BME280;27051;50.376;19.152;2023-07-20T00:50:07;97514.40;;;20.06;51.59
41306;BME280;27051;50.376;19.152;2023-07-20T00:52:35;97513.91;;;20.07;51.99
41306;BME280;27051;50.376;19.152;2023-07-20T00:55:03;97513.52;;;20.02;52.13
41306;BME280;27051;50.376;19.152;2023-07-20T00:57:30;97514.54;;;19.93;52.50
41306;BME280;27051;50.376;19.152;2023-07-20T00:59:56;97512.00;;;19.80;52.89
41306;BME280;27051;50.376;19.152;2023-07-20T01:02:23;97510.48;;;19.68;53.22
41306;BME280;27051;50.376;19.152;2023-07-20T01:04:53;97510.35;;;19.60;53.39
41306;BME280;27051;50.376;19.152;2023-07-20T01:07:27;97511.14;;;19.49;53.57
41306;BME280;27051;50.376;19.152;2023-07-20T01:15:11;97508.69;;;19.19;54.27
41306;BME280;27051;50.376;19.152;2023-07-20T01:17:37;97499.81;;;19.25;54.42
41306;BME280;27051;50.376;19.152;2023-07-20T01:20:08;97487.66;;;19.25;54.36
41306;BME280;27051;50.376;19.152;2023-07-20T01:23:22;97479.16;;;19.26;54.46
41306;BME280;27051;50.376;19.152;2023-07-20T01:26:02;97468.71;;;19.33;54.68
41306;BME280;27051;50.376;19.152;2023-07-20T01:31:38;97478.92;;;19.32;55.07
41306;BME280;27051;50.376;19.152;2023-07-20T01:34:09;97465.23;;;19.26;55.17
41306;BME280;27051;50.376;19.152;2023-07-20T01:36:38;97470.15;;;19.20;55.37
41306;BME280;27051;50.376;19.152;2023-07-20T01:39:06;97461.34;;;19.10;55.41
41306;BME280;27051;50.376;19.152;2023-07-20T01:41:34;97452.94;;;19.10;55.62
41306;BME280;27051;50.376;19.152;2023-07-20T01:44:03;97457.38;;;19.15;55.70
41306;BME280;27051;50.376;19.152;2023-07-20T01:46:30;97456.60;;;19.15;55.84
41306;BME280;27051;50.376;19.152;2023-07-20T01:48:57;97455.48;;;19.11;55.83
41306;BME280;27051;50.376;19.152;2023-07-20T01:51:24;97454.44;;;19.08;55.93
41306;BME280;27051;50.376;19.152;2023-07-20T01:53:50;97454.13;;;19.08;56.06
41306;BME280;27051;50.376;19.152;2023-07-20T01:56:17;97455.27;;;19.09;56.16
41306;BME280;27051;50.376;19.152;2023-07-20T01:58:44;97462.36;;;19.10;56.16
41306;BME280;27051;50.376;19.152;2023-07-20T02:01:13;97472.54;;;19.10;56.10
41306;BME280;27051;50.376;19.152;2023-07-20T02:03:42;97482.52;;;19.04;56.19
41306;BME280;27051;50.376;19.152;2023-07-20T02:06:09;97483.20;;;18.99;56.40
41306;BME280;27051;50.376;19.152;2023-07-20T02:08:35;97480.05;;;18.96;56.25
41306;BME280;27051;50.376;19.152;2023-07-20T02:11:02;97483.02;;;18.90;56.50
41306;BME280;27051;50.376;19.152;2023-07-20T02:13:28;97491.95;;;18.78;56.70
41306;BME280;27051;50.376;19.152;2023-07-20T02:15:55;97485.10;;;18.70;56.77
41306;BME280;27051;50.376;19.152;2023-07-20T02:18:21;97486.58;;;18.70;56.64
41306;BME280;27051;50.376;19.152;2023-07-20T02:20:48;97484.71;;;18.70;56.71
41306;BME280;27051;50.376;19.152;2023-07-20T02:23:15;97492.98;;;18.68;57.01
41306;BME280;27051;50.376;19.152;2023-07-20T02:25:41;97498.55;;;18.63;56.73
41306;BME280;27051;50.376;19.152;2023-07-20T02:28:08;97503.59;;;18.57;56.96
41306;BME280;27051;50.376;19.152;2023-07-20T02:30:38;97508.46;;;18.53;56.91
41306;BME280;27051;50.376;19.152;2023-07-20T02:33:05;97513.52;;;18.54;57.11
41306;BME280;27051;50.376;19.152;2023-07-20T02:35:32;97501.86;;;18.53;57.06
41306;BME280;27051;50.376;19.152;2023-07-20T02:37:58;97499.61;;;18.52;57.06
41306;BME280;27051;50.376;19.152;2023-07-20T02:40:25;97504.14;;;18.50;56.93
41306;BME280;27051;50.376;19.152;2023-07-20T02:42:52;97508.44;;;18.41;57.06
41306;BME280;27051;50.376;19.152;2023-07-20T02:45:18;97509.44;;;18.42;57.02
41306;BME280;27051;50.376;19.152;2023-07-20T02:47:45;97517.64;;;18.45;56.97
41306;BME280;27051;50.376;19.152;2023-07-20T02:50:14;97524.70;;;18.47;56.91
41306;BME280;27051;50.376;19.152;2023-07-20T02:52:41;97521.67;;;18.47;56.81
41306;BME280;27051;50.376;19.152;2023-07-20T02:55:08;97524.63;;;18.47;56.78
41306;BME280;27051;50.376;19.152;2023-07-20T02:57:35;97524.30;;;18.48;56.93
41306;BME280;27051;50.376;19.152;2023-07-20T03:00:03;97523.91;;;18.48;57.23
41306;BME280;27051;50.376;19.152;2023-07-20T03:02:30;97526.73;;;18.40;57.00
41306;BME280;27051;50.376;19.152;2023-07-20T03:04:57;97533.20;;;18.37;56.88
41306;BME280;27051;50.376;19.152;2023-07-20T03:07:24;97541.46;;;18.34;57.00
41306;BME280;27051;50.376;19.152;2023-07-20T03:09:50;97542.92;;;18.28;57.10
41306;BME280;27051;50.376;19.152;2023-07-20T03:12:17;97543.34;;;18.26;57.10
41306;BME280;27051;50.376;19.152;2023-07-20T03:14:51;97546.39;;;18.24;57.35
41306;BME280;27051;50.376;19.152;2023-07-20T03:17:18;97552.77;;;18.13;57.41
41306;BME280;27051;50.376;19.152;2023-07-20T03:19:44;97561.77;;;18.13;57.29
41306;BME280;27051;50.376;19.152;2023-07-20T03:22:11;97567.48;;;18.18;57.35
41306;BME280;27051;50.376;19.152;2023-07-20T03:24:37;97565.43;;;18.21;57.46
41306;BME280;27051;50.376;19.152;2023-07-20T03:27:15;97560.32;;;18.21;57.72
41306;BME280;27051;50.376;19.152;2023-07-20T03:29:55;97565.17;;;18.25;57.43
41306;BME280;27051;50.376;19.152;2023-07-20T03:32:43;97563.70;;;18.25;57.56
41306;BME280;27051;50.376;19.152;2023-07-20T03:35:19;97565.50;;;18.22;57.71
41306;BME280;27051;50.376;19.152;2023-07-20T03:37:55;97572.13;;;18.21;57.60
41306;BME280;27051;50.376;19.152;2023-07-20T03:43:27;97578.18;;;18.20;57.70
41306;BME280;27051;50.376;19.152;2023-07-20T03:45:54;97590.77;;;18.22;57.70
41306;BME280;27051;50.376;19.152;2023-07-20T03:48:24;97588.23;;;18.17;57.84
41306;BME280;27051;50.376;19.152;2023-07-20T03:51:00;97583.74;;;18.17;58.09
41306;BME280;27051;50.376;19.152;2023-07-20T03:53:26;97594.36;;;18.20;57.89
41306;BME280;27051;50.376;19.152;2023-07-20T03:55:54;97623.58;;;18.31;58.31
41306;BME280;27051;50.376;19.152;2023-07-20T03:58:23;97625.68;;;18.30;58.16
41306;BME280;27051;50.376;19.152;2023-07-20T04:00:51;97625.65;;;18.32;58.15
41306;BME280;27051;50.376;19.152;2023-07-20T04:03:18;97610.13;;;18.30;58.44
41306;BME280;27051;50.376;19.152;2023-07-20T04:05:51;97605.09;;;18.29;58.38
41306;BME280;27051;50.376;19.152;2023-07-20T04:08:33;97617.50;;;18.31;58.71
41306;BME280;27051;50.376;19.152;2023-07-20T04:11:01;97640.80;;;18.34;58.53
41306;BME280;27051;50.376;19.152;2023-07-20T04:13:45;97625.63;;;18.26;58.47
41306;BME280;27051;50.376;19.152;2023-07-20T04:16:11;97622.96;;;18.20;59.02
41306;BME280;27051;50.376;19.152;2023-07-20T04:21:57;97613.92;;;18.22;59.43
41306;BME280;27051;50.376;19.152;2023-07-20T04:24:24;97611.65;;;18.34;59.36
41306;BME280;27051;50.376;19.152;2023-07-20T04:26:50;97613.05;;;18.34;59.57
41306;BME280;27051;50.376;19.152;2023-07-20T04:29:17;97602.30;;;18.37;59.83
41306;BME280;27051;50.376;19.152;2023-07-20T04:31:44;97617.94;;;18.35;59.65
41306;BME280;27051;50.376;19.152;2023-07-20T04:34:21;97621.45;;;18.34;60.02
41306;BME280;27051;50.376;19.152;2023-07-20T04:37:07;97612.77;;;18.31;60.43
41306;BME280;27051;50.376;19.152;2023-07-20T04:42:34;97619.07;;;18.21;60.90
41306;BME280;27051;50.376;19.152;2023-07-20T04:45:03;97616.47;;;18.26;61.11
41306;BME280;27051;50.376;19.152;2023-07-20T04:47:30;97610.55;;;18.26;61.16
41306;BME280;27051;50.376;19.152;2023-07-20T04:49:57;97601.17;;;18.23;61.17
41306;BME280;27051;50.376;19.152;2023-07-20T04:52:24;97603.08;;;18.17;61.64
41306;BME280;27051;50.376;19.152;2023-07-20T04:54:50;97601.77;;;18.09;61.72
41306;BME280;27051;50.376;19.152;2023-07-20T04:57:17;97606.96;;;17.99;61.94
41306;BME280;27051;50.376;19.152;2023-07-20T04:59:44;97609.23;;;17.96;62.22
41306;BME280;27051;50.376;19.152;2023-07-20T05:02:21;97609.70;;;17.97;62.15
41306;BME280;27051;50.376;19.152;2023-07-20T05:04:50;97616.07;;;17.96;62.22
41306;BME280;27051;50.376;19.152;2023-07-20T05:07:38;97613.17;;;17.99;62.74
41306;BME280;27051;50.376;19.152;2023-07-20T05:10:30;97611.80;;;18.06;62.58
41306;BME280;27051;50.376;19.152;2023-07-20T05:13:00;97611.08;;;18.10;62.44
41306;BME280;27051;50.376;19.152;2023-07-20T05:15:30;97610.36;;;18.13;62.83
41306;BME280;27051;50.376;19.152;2023-07-20T05:17:58;97613.09;;;18.11;62.84
41306;BME280;27051;50.376;19.152;2023-07-20T05:23:20;97629.96;;;18.28;62.40
41306;BME280;27051;50.376;19.152;2023-07-20T05:29:03;97637.36;;;18.45;62.59
41306;BME280;27051;50.376;19.152;2023-07-20T05:31:29;97640.38;;;18.57;62.78
41306;BME280;27051;50.376;19.152;2023-07-20T05:33:56;97647.55;;;18.70;62.68
41306;BME280;27051;50.376;19.152;2023-07-20T05:39:05;97647.29;;;18.76;62.40
41306;BME280;27051;50.376;19.152;2023-07-20T05:41:32;97646.79;;;18.88;62.15
41306;BME280;27051;50.376;19.152;2023-07-20T05:44:01;97645.42;;;18.98;62.54
41306;BME280;27051;50.376;19.152;2023-07-20T05:46:49;97649.44;;;19.09;62.46
41306;BME280;27051;50.376;19.152;2023-07-20T05:49:14;97653.65;;;19.22;62.65
41306;BME280;27051;50.376;19.152;2023-07-20T05:51:41;97657.39;;;19.21;61.85
41306;BME280;27051;50.376;19.152;2023-07-20T05:54:28;97654.39;;;19.11;61.83
41306;BME280;27051;50.376;19.152;2023-07-20T05:56:54;97648.16;;;19.05;62.58
41306;BME280;27051;50.376;19.152;2023-07-20T05:59:31;97649.95;;;19.04;62.31
41306;BME280;27051;50.376;19.152;2023-07-20T06:02:00;97659.55;;;19.02;62.36
41306;BME280;27051;50.376;19.152;2023-07-20T06:04:47;97660.52;;;18.99;62.64
41306;BME280;27051;50.376;19.152;2023-07-20T06:07:16;97657.19;;;18.98;62.54
41306;BME280;27051;50.376;19.152;2023-07-20T06:09:43;97661.52;;;18.99;62.41
41306;BME280;27051;50.376;19.152;2023-07-20T06:12:33;97664.88;;;18.99;62.84
41306;BME280;27051;50.376;19.152;2023-07-20T06:15:02;97665.24;;;19.02;62.78
41306;BME280;27051;50.376;19.152;2023-07-20T06:17:31;97667.47;;;19.10;62.67
41306;BME280;27051;50.376;19.152;2023-07-20T06:19:58;97663.55;;;19.05;62.77
41306;BME280;27051;50.376;19.152;2023-07-20T06:22:27;97665.45;;;19.11;63.04
41306;BME280;27051;50.376;19.152;2023-07-20T06:24:54;97666.55;;;19.24;63.39
41306;BME280;27051;50.376;19.152;2023-07-20T06:27:23;97660.18;;;19.30;63.35
41306;BME280;27051;50.376;19.152;2023-07-20T06:29:50;97668.61;;;19.53;63.15
41306;BME280;27051;50.376;19.152;2023-07-20T06:32:16;97662.20;;;19.76;62.88
41306;BME280;27051;50.376;19.152;2023-07-20T06:35:04;97663.00;;;19.95;62.62
41306;BME280;27051;50.376;19.152;2023-07-20T06:37:30;97662.89;;;20.04;61.75
41306;BME280;27051;50.376;19.152;2023-07-20T06:40:28;97666.03;;;20.07;61.81
41306;BME280;27051;50.376;19.152;2023-07-20T06:43:14;97664.77;;;20.14;61.68
41306;BME280;27051;50.376;19.152;2023-07-20T06:45:51;97663.08;;;20.27;61.80
41306;BME280;27051;50.376;19.152;2023-07-20T06:48:17;97662.23;;;20.26;61.88
41306;BME280;27051;50.376;19.152;2023-07-20T06:50:46;97666.86;;;20.38;61.87
41306;BME280;27051;50.376;19.152;2023-07-20T06:53:13;97673.73;;;20.55;61.88
41306;BME280;27051;50.376;19.152;2023-07-20T06:55:42;97676.09;;;20.63;61.35
41306;BME280;27051;50.376;19.152;2023-07-20T06:58:11;97676.16;;;20.68;61.40
41306;BME280;27051;50.376;19.152;2023-07-20T07:00:38;97675.35;;;20.71;61.09
41306;BME280;27051;50.376;19.152;2023-07-20T07:03:04;97670.85;;;20.82;61.00
41306;BME280;27051;50.376;19.152;2023-07-20T07:05:31;97674.71;;;20.89;60.70
41306;BME280;27051;50.376;19.152;2023-07-20T07:07:58;97672.08;;;20.92;60.57
41306;BME280;27051;50.376;19.152;2023-07-20T07:10:35;97675.10;;;20.97;60.64
41306;BME280;27051;50.376;19.152;2023-07-20T07:13:03;97673.16;;;21.05;60.54
41306;BME280;27051;50.376;19.152;2023-07-20T07:15:29;97676.00;;;21.13;60.27
41306;BME280;27051;50.376;19.152;2023-07-20T07:17:56;97676.64;;;21.12;59.59
41306;BME280;27051;50.376;19.152;2023-07-20T07:20:25;97670.27;;;21.05;59.51
41306;BME280;27051;50.376;19.152;2023-07-20T07:22:55;97671.27;;;21.11;59.60
41306;BME280;27051;50.376;19.152;2023-07-20T07:27:59;97669.38;;;21.16;59.52
41306;BME280;27051;50.376;19.152;2023-07-20T07:30:25;97672.23;;;21.25;59.61
41306;BME280;27051;50.376;19.152;2023-07-20T07:32:52;97677.86;;;21.43;59.37
41306;BME280;27051;50.376;19.152;2023-07-20T07:35:19;97678.02;;;21.55;58.66
41306;BME280;27051;50.376;19.152;2023-07-20T07:37:46;97679.27;;;21.61;58.36
41306;BME280;27051;50.376;19.152;2023-07-20T07:40:12;97680.16;;;21.68;57.96
41306;BME280;27051;50.376;19.152;2023-07-20T07:42:41;97685.65;;;21.74;57.71
41306;BME280;27051;50.376;19.152;2023-07-20T07:45:09;97694.20;;;21.91;57.79
41306;BME280;27051;50.376;19.152;2023-07-20T07:47:36;97690.52;;;21.99;57.46
41306;BME280;27051;50.376;19.152;2023-07-20T07:50:03;97692.45;;;21.99;57.27
41306;BME280;27051;50.376;19.152;2023-07-20T07:52:30;97695.98;;;22.13;56.99
41306;BME280;27051;50.376;19.152;2023-07-20T07:55:04;97701.56;;;22.11;56.53
41306;BME280;27051;50.376;19.152;2023-07-20T07:57:31;97699.78;;;22.14;56.36
41306;BME280;27051;50.376;19.152;2023-07-20T07:59:57;97703.20;;;22.30;56.92
41306;BME280;27051;50.376;19.152;2023-07-20T08:02:26;97701.98;;;22.58;56.47
41306;BME280;27051;50.376;19.152;2023-07-20T08:04:53;97705.29;;;22.61;56.03
41306;BME280;27051;50.376;19.152;2023-07-20T08:07:20;97707.70;;;22.67;55.89
41306;BME280;27051;50.376;19.152;2023-07-20T08:09:46;97708.64;;;22.64;55.39
41306;BME280;27051;50.376;19.152;2023-07-20T08:12:15;97706.41;;;22.62;55.28
41306;BME280;27051;50.376;19.152;2023-07-20T08:14:42;97711.02;;;22.63;54.82
41306;BME280;27051;50.376;19.152;2023-07-20T08:17:11;97704.54;;;22.73;54.97
41306;BME280;27051;50.376;19.152;2023-07-20T08:19:38;97709.27;;;22.83;54.57
41306;BME280;27051;50.376;19.152;2023-07-20T08:22:05;97709.60;;;22.86;54.28
41306;BME280;27051;50.376;19.152;2023-07-20T08:24:31;97706.83;;;22.84;54.34
41306;BME280;27051;50.376;19.152;2023-07-20T08:26:58;97711.25;;;22.83;54.03
41306;BME280;27051;50.376;19.152;2023-07-20T08:29:25;97708.46;;;22.68;53.81
41306;BME280;27051;50.376;19.152;2023-07-20T08:31:51;97709.17;;;22.58;54.19
41306;BME280;27051;50.376;19.152;2023-07-20T08:34:18;97702.54;;;22.52;54.30
41306;BME280;27051;50.376;19.152;2023-07-20T08:36:44;97707.58;;;22.44;54.36
41306;BME280;27051;50.376;19.152;2023-07-20T08:39:14;97709.80;;;22.35;54.35
41306;BME280;27051;50.376;19.152;2023-07-20T08:41:42;97709.67;;;22.30;54.32
41306;BME280;27051;50.376;19.152;2023-07-20T08:44:10;97714.56;;;22.32;54.32
41306;BME280;27051;50.376;19.152;2023-07-20T08:46:38;97719.37;;;22.44;54.42
41306;BME280;27051;50.376;19.152;2023-07-20T08:49:06;97719.02;;;22.62;54.04
41306;BME280;27051;50.376;19.152;2023-07-20T08:51:33;97720.48;;;22.76;53.94
41306;BME280;27051;50.376;19.152;2023-07-20T08:54:02;97719.77;;;22.92;53.64
41306;BME280;27051;50.376;19.152;2023-07-20T08:56:31;97718.16;;;23.24;53.62
41306;BME280;27051;50.376;19.152;2023-07-20T08:59:01;97717.34;;;23.66;53.09
41306;BME280;27051;50.376;19.152;2023-07-20T09:01:28;97719.95;;;23.93;52.66
41306;BME280;27051;50.376;19.152;2023-07-20T09:04:00;97721.73;;;23.99;52.27
41306;BME280;27051;50.376;19.152;2023-07-20T09:06:27;97717.89;;;24.07;52.05
41306;BME280;27051;50.376;19.152;2023-07-20T09:08:54;97720.84;;;24.21;52.11
41306;BME280;27051;50.376;19.152;2023-07-20T09:11:22;97721.59;;;24.32;51.60
41306;BME280;27051;50.376;19.152;2023-07-20T09:14:02;97721.91;;;24.56;51.30
41306;BME280;27051;50.376;19.152;2023-07-20T09:16:29;97722.42;;;24.81;51.16
41306;BME280;27051;50.376;19.152;2023-07-20T09:18:58;97726.92;;;25.03;50.65
41306;BME280;27051;50.376;19.152;2023-07-20T09:21:28;97721.60;;;25.33;50.64
41306;BME280;27051;50.376;19.152;2023-07-20T09:23:58;97723.39;;;25.43;50.23
41306;BME280;27051;50.376;19.152;2023-07-20T09:26:25;97720.73;;;25.44;50.11
41306;BME280;27051;50.376;19.152;2023-07-20T09:28:52;97722.23;;;25.40;49.41
41306;BME280;27051;50.376;19.152;2023-07-20T09:31:21;97716.66;;;25.63;49.27
41306;BME280;27051;50.376;19.152;2023-07-20T09:33:48;97717.95;;;26.05;49.42
41306;BME280;27051;50.376;19.152;2023-07-20T09:36:15;97720.75;;;26.16;48.24
41306;BME280;27051;50.376;19.152;2023-07-20T09:38:42;97724.02;;;26.09;48.64
41306;BME280;27051;50.376;19.152;2023-07-20T09:41:18;97730.79;;;25.86;47.92
41306;BME280;27051;50.376;19.152;2023-07-20T09:43:45;97739.14;;;25.50;47.28
41306;BME280;27051;50.376;19.152;2023-07-20T09:46:22;97741.72;;;25.05;48.25
41306;BME280;27051;50.376;19.152;2023-07-20T09:48:52;97747.63;;;24.58;49.15
41306;BME280;27051;50.376;19.152;2023-07-20T09:51:31;97750.94;;;24.06;49.58
41306;BME280;27051;50.376;19.152;2023-07-20T09:53:58;97751.12;;;23.55;50.25
41306;BME280;27051;50.376;19.152;2023-07-20T09:56:27;97750.46;;;23.21;50.85
41306;BME280;27051;50.376;19.152;2023-07-20T09:58:55;97750.05;;;23.03;51.09
41306;BME280;27051;50.376;19.152;2023-07-20T10:03:59;97740.81;;;23.27;52.39
41306;BME280;27051;50.376;19.152;2023-07-20T10:06:30;97736.25;;;23.88;52.75
41306;BME280;27051;50.376;19.152;2023-07-20T10:09:03;97738.30;;;24.60;52.46
41306;BME280;27051;50.376;19.152;2023-07-20T10:11:32;97736.51;;;25.42;51.63
41306;BME280;27051;50.376;19.152;2023-07-20T10:14:03;97735.35;;;26.15;50.66
41306;BME280;27051;50.376;19.152;2023-07-20T10:16:42;97734.54;;;26.86;50.66
41306;BME280;27051;50.376;19.152;2023-07-20T10:22:14;97729.30;;;28.17;48.81
41306;BME280;27051;50.376;19.152;2023-07-20T10:24:44;97729.61;;;28.69;47.46
41306;BME280;27051;50.376;19.152;2023-07-20T10:27:11;97729.96;;;29.17;46.54
41306;BME280;27051;50.376;19.152;2023-07-20T10:29:39;97726.91;;;29.52;46.27
41306;BME280;27051;50.376;19.152;2023-07-20T10:32:07;97721.64;;;29.97;45.81
41306;BME280;27051;50.376;19.152;2023-07-20T10:34:34;97724.03;;;30.33;44.49
41306;BME280;27051;50.376;19.152;2023-07-20T10:37:01;97722.17;;;30.62;43.80
41306;BME280;27051;50.376;19.152;2023-07-20T10:39:31;97721.27;;;31.00;43.25
41306;BME280;27051;50.376;19.152;2023-07-20T10:42:08;97716.96;;;31.42;42.65
41306;BME280;27051;50.376;19.152;2023-07-20T10:44:39;97718.14;;;31.86;41.56
41306;BME280;27051;50.376;19.152;2023-07-20T10:47:10;97718.03;;;32.16;41.34
41306;BME280;27051;50.376;19.152;2023-07-20T10:49:57;97719.73;;;32.57;40.69
41306;BME280;27051;50.376;19.152;2023-07-20T10:52:24;97715.52;;;33.25;39.77
41306;BME280;27051;50.376;19.152;2023-07-20T10:54:50;97713.91;;;33.88;39.01
41306;BME280;27051;50.376;19.152;2023-07-20T10:57:27;97714.40;;;34.39;37.71
41306;BME280;27051;50.376;19.152;2023-07-20T11:00:08;97707.77;;;34.75;36.89
41306;BME280;27051;50.376;19.152;2023-07-20T11:02:45;97703.70;;;35.06;36.56
41306;BME280;27051;50.376;19.152;2023-07-20T11:05:35;97705.85;;;35.56;35.56
41306;BME280;27051;50.376;19.152;2023-07-20T11:08:04;97707.84;;;35.87;34.22
41306;BME280;27051;50.376;19.152;2023-07-20T11:10:31;97704.09;;;35.90;33.40
41306;BME280;27051;50.376;19.152;2023-07-20T11:13:21;97697.66;;;35.98;33.29
41306;BME280;27051;50.376;19.152;2023-07-20T11:16:01;97700.73;;;36.19;32.66
41306;BME280;27051;50.376;19.152;2023-07-20T11:18:28;97700.48;;;36.41;32.44
41306;BME280;27051;50.376;19.152;2023-07-20T11:20:55;97701.32;;;36.81;31.53
41306;BME280;27051;50.376;19.152;2023-07-20T11:23:21;97694.84;;;37.26;31.00
41306;BME280;27051;50.376;19.152;2023-07-20T11:25:49;97684.98;;;37.69;29.69
41306;BME280;27051;50.376;19.152;2023-07-20T11:28:16;97678.31;;;37.94;29.51
41306;BME280;27051;50.376;19.152;2023-07-20T11:30:42;97679.48;;;38.19;29.12
41306;BME280;27051;50.376;19.152;2023-07-20T11:33:09;97676.09;;;38.46;28.52
41306;BME280;27051;50.376;19.152;2023-07-20T11:35:45;97673.15;;;38.30;27.96
41306;BME280;27051;50.376;19.152;2023-07-20T11:38:13;97676.16;;;38.49;27.21
41306;BME280;27051;50.376;19.152;2023-07-20T11:40:44;97680.18;;;38.86;26.52
41306;BME280;27051;50.376;19.152;2023-07-20T11:43:12;97672.29;;;38.93;26.33
41306;BME280;27051;50.376;19.152;2023-07-20T11:45:39;97667.30;;;38.87;25.99
41306;BME280;27051;50.376;19.152;2023-07-20T11:48:06;97664.81;;;39.15;25.67
41306;BME280;27051;50.376;19.152;2023-07-20T11:50:38;97662.05;;;39.87;25.48
41306;BME280;27051;50.376;19.152;2023-07-20T11:53:05;97662.69;;;40.76;24.84
41306;BME280;27051;50.376;19.152;2023-07-20T11:55:31;97658.35;;;40.97;24.35
41306;BME280;27051;50.376;19.152;2023-07-20T11:58:05;97660.89;;;40.78;24.34
41306;BME280;27051;50.376;19.152;2023-07-20T12:00:36;97665.50;;;40.24;24.14
41306;BME280;27051;50.376;19.152;2023-07-20T12:03:05;97663.63;;;39.64;24.10
41306;BME280;27051;50.376;19.152;2023-07-20T12:05:33;97659.46;;;38.85;24.14
41306;BME280;27051;50.376;19.152;2023-07-20T12:07:59;97654.93;;;38.20;24.21
41306;BME280;27051;50.376;19.152;2023-07-20T12:10:27;97648.79;;;38.65;24.34
41306;BME280;27051;50.376;19.152;2023-07-20T12:12:54;97644.80;;;39.69;23.63
41306;BME280;27051;50.376;19.152;2023-07-20T12:15:26;97652.48;;;40.87;23.21
41306;BME280;27051;50.376;19.152;2023-07-20T12:17:55;97651.16;;;41.63;22.76
41306;BME280;27051;50.376;19.152;2023-07-20T12:22:52;97647.70;;;41.89;21.12
41306;BME280;27051;50.376;19.152;2023-07-20T12:25:19;97645.55;;;42.34;21.23
41306;BME280;27051;50.376;19.152;2023-07-20T12:27:45;97645.14;;;42.60;20.95
41306;BME280;27051;50.376;19.152;2023-07-20T12:30:12;97646.11;;;41.97;20.81
41306;BME280;27051;50.376;19.152;2023-07-20T12:32:38;97644.20;;;40.88;21.24
41306;BME280;27051;50.376;19.152;2023-07-20T12:35:05;97644.20;;;39.68;21.46
41306;BME280;27051;50.376;19.152;2023-07-20T12:37:32;97644.33;;;39.78;21.26
41306;BME280;27051;50.376;19.152;2023-07-20T12:39:58;97647.90;;;40.27;21.21
41306;BME280;27051;50.376;19.152;2023-07-20T12:42:25;97652.53;;;40.73;21.05
41306;BME280;27051;50.376;19.152;2023-07-20T12:44:51;97643.58;;;41.71;20.88
41306;BME280;27051;50.376;19.152;2023-07-20T12:47:18;97640.73;;;42.71;20.69
41306;BME280;27051;50.376;19.152;2023-07-20T12:49:44;97638.23;;;43.26;20.07
41306;BME280;27051;50.376;19.152;2023-07-20T12:52:11;97634.27;;;43.16;19.76
41306;BME280;27051;50.376;19.152;2023-07-20T12:54:37;97637.48;;;43.35;19.68
41306;BME280;27051;50.376;19.152;2023-07-20T12:57:04;97636.28;;;43.71;19.45
41306;BME280;27051;50.376;19.152;2023-07-20T12:59:30;97635.48;;;43.29;19.70
41306;BME280;27051;50.376;19.152;2023-07-20T13:01:57;97636.42;;;42.94;19.95
41306;BME280;27051;50.376;19.152;2023-07-20T13:04:23;97637.27;;;43.10;19.52
41306;BME280;27051;50.376;19.152;2023-07-20T13:06:50;97637.40;;;43.41;19.37
41306;BME280;27051;50.376;19.152;2023-07-20T13:09:16;97633.34;;;42.21;19.62
41306;BME280;27051;50.376;19.152;2023-07-20T13:11:42;97634.91;;;41.23;20.04
41306;BME280;27051;50.376;19.152;2023-07-20T13:14:09;97635.17;;;41.28;20.04
41306;BME280;27051;50.376;19.152;2023-07-20T13:16:35;97636.48;;;40.08;20.85
41306;BME280;27051;50.376;19.152;2023-07-20T13:19:01;97634.23;;;38.73;21.22
41306;BME280;27051;50.376;19.152;2023-07-20T13:21:28;97635.73;;;37.73;22.02
41306;BME280;27051;50.376;19.152;2023-07-20T13:23:54;97637.21;;;36.86;22.49
41306;BME280;27051;50.376;19.152;2023-07-20T13:26:21;97637.17;;;36.12;23.10
41306;BME280;27051;50.376;19.152;2023-07-20T13:28:47;97639.40;;;36.07;23.41
41306;BME280;27051;50.376;19.152;2023-07-20T13:31:14;97634.92;;;37.55;23.32
41306;BME280;27051;50.376;19.152;2023-07-20T13:33:40;97634.28;;;39.04;22.94
41306;BME280;27051;50.376;19.152;2023-07-20T13:36:06;97632.31;;;40.06;22.49
41306;BME280;27051;50.376;19.152;2023-07-20T13:38:33;97628.30;;;41.28;21.71